This is the latest recevied weather packets stored in our database for station/object KK4JIV-13. If no packets are shown the sender has not sent any weather packets the latest 1 day(s).
| Time | Temp. | Humidity | Pressure | Rain* | Wind** | Luminosity | Snow |
|---|---|---|---|---|---|---|---|
| 1778021240 | 29.44° C | 44% | 1013.6 hPa | 0 mm | 0.89 m/s, 250° | 79 W/m² | - |
| 1778020938 | 30° C | 44% | 1013.4 hPa | 0 mm | 0.45 m/s, 230° | 87 W/m² | - |
| 1778020635 | 30° C | 43% | 1013.6 hPa | 0 mm | 0 m/s | 86 W/m² | - |
| 1778020331 | 30° C | 43% | 1013.5 hPa | 0 mm | 0 m/s | 94 W/m² | - |
| 1778020027 | 30.56° C | 42% | 1013.4 hPa | 0 mm | 0.45 m/s, 145° | 115 W/m² | - |
| 1778019723 | 30.56° C | 43% | 1013.5 hPa | 0 mm | 0 m/s | 134 W/m² | - |
| 1778019421 | 30° C | 42% | 1013.6 hPa | 0 mm | 0 m/s | 168 W/m² | - |
| 1778019117 | 30.56° C | 42% | 1013.4 hPa | 0 mm | 0 m/s | 180 W/m² | - |
| 1778018814 | 30° C | 43% | 1013.4 hPa | 0 mm | 0.45 m/s, 230° | 210 W/m² | - |
| 1778018512 | 31.11° C | 41% | 1013.4 hPa | 0 mm | 1.79 m/s, 283° | 229 W/m² | - |
| 1778018210 | 31.67° C | 41% | 1013.5 hPa | 0 mm | 0 m/s | 222 W/m² | - |
| 1778017907 | 31.67° C | 42% | 1013.3 hPa | 0 mm | 1.34 m/s, 315° | 258 W/m² | - |
| 1778017605 | 31.11° C | 41% | 1013.4 hPa | 0 mm | 0.45 m/s, 269° | 262 W/m² | - |
| 1778017302 | 31.11° C | 41% | 1013.5 hPa | 0 mm | 0.89 m/s, 210° | 288 W/m² | - |
| 1778017000 | 30.56° C | 43% | 1013.5 hPa | 0 mm | 0 m/s | 297 W/m² | - |
| 1778016696 | 31.11° C | 43% | 1013.3 hPa | 0 mm | 1.34 m/s, 272° | 325 W/m² | - |
| 1778016392 | 31.11° C | 42% | 1013.6 hPa | 0 mm | 0.89 m/s, 301° | 347 W/m² | - |
| 1778016090 | 31.11° C | 42% | 1013.3 hPa | 0 mm | 0 m/s | 356 W/m² | - |
| 1778015787 | 31.67° C | 41% | 1013.5 hPa | 0 mm | 1.34 m/s, 105° | 360 W/m² | - |
| 1778015484 | 31.67° C | 41% | 1013.4 hPa | 0 mm | 0.89 m/s, 239° | 402 W/m² | - |
| 1778015180 | 31.11° C | 43% | 1013.3 hPa | 0 mm | 0.45 m/s, 64° | 392 W/m² | - |
| 1778014877 | 31.67° C | 41% | 1013.4 hPa | 0 mm | 1.34 m/s, 199° | 426 W/m² | - |
| 1778014575 | 31.11° C | 43% | 1013.4 hPa | 0 mm | 0.45 m/s, 196° | 441 W/m² | - |
| 1778014273 | 31.67° C | 42% | 1013.6 hPa | 0 mm | 0 m/s | 484 W/m² | - |
| 1778013970 | 31.67° C | 41% | 1013.6 hPa | 0 mm | 0.89 m/s, 104° | 482 W/m² | - |
* Rain latest hour (hover to see other rain measurements)
** Current wind speed in m/s (hover to see current wind gust speed)